sensor_id;sensor_type;location;lat;lon;timestamp;temperature;humidity
27188;DHT22;14708;50.872;5.306;2022-10-12T00:01:59;20.20;63.30
27188;DHT22;14708;50.872;5.306;2022-10-12T00:04:24;20.10;62.90
27188;DHT22;14708;50.872;5.306;2022-10-12T00:06:50;20.10;63.10
27188;DHT22;14708;50.872;5.306;2022-10-12T00:09:16;20.10;63.10
27188;DHT22;14708;50.872;5.306;2022-10-12T00:11:41;20.10;63.20
27188;DHT22;14708;50.872;5.306;2022-10-12T00:14:07;20.10;63.30
27188;DHT22;14708;50.872;5.306;2022-10-12T00:16:33;20.10;63.10
27188;DHT22;14708;50.872;5.306;2022-10-12T00:18:59;20.10;63.20
27188;DHT22;14708;50.872;5.306;2022-10-12T00:21:26;20.10;63.00
27188;DHT22;14708;50.872;5.306;2022-10-12T00:23:59;20.00;63.00
27188;DHT22;14708;50.872;5.306;2022-10-12T00:26:44;20.00;62.90
27188;DHT22;14708;50.872;5.306;2022-10-12T00:29:09;20.00;63.10
27188;DHT22;14708;50.872;5.306;2022-10-12T00:31:35;20.00;63.10
27188;DHT22;14708;50.872;5.306;2022-10-12T00:34:02;20.00;63.10
27188;DHT22;14708;50.872;5.306;2022-10-12T00:36:30;20.00;63.30
27188;DHT22;14708;50.872;5.306;2022-10-12T00:39:01;20.00;63.20
27188;DHT22;14708;50.872;5.306;2022-10-12T00:41:32;20.00;63.10
27188;DHT22;14708;50.872;5.306;2022-10-12T00:43:59;20.00;63.10
27188;DHT22;14708;50.872;5.306;2022-10-12T00:46:32;20.00;63.20
27188;DHT22;14708;50.872;5.306;2022-10-12T00:49:09;20.00;63.20
27188;DHT22;14708;50.872;5.306;2022-10-12T00:51:39;19.90;63.10
27188;DHT22;14708;50.872;5.306;2022-10-12T00:54:09;20.00;63.20
27188;DHT22;14708;50.872;5.306;2022-10-12T00:56:39;19.90;63.10
27188;DHT22;14708;50.872;5.306;2022-10-12T00:59:09;19.90;63.10
27188;DHT22;14708;50.872;5.306;2022-10-12T01:01:37;19.90;63.10
27188;DHT22;14708;50.872;5.306;2022-10-12T01:04:04;19.90;63.20
27188;DHT22;14708;50.872;5.306;2022-10-12T01:06:31;19.90;63.20
27188;DHT22;14708;50.872;5.306;2022-10-12T01:08:57;19.90;63.10
27188;DHT22;14708;50.872;5.306;2022-10-12T01:11:23;19.90;63.20
27188;DHT22;14708;50.872;5.306;2022-10-12T01:13:48;19.90;63.00
27188;DHT22;14708;50.872;5.306;2022-10-12T01:16:26;19.90;63.00
27188;DHT22;14708;50.872;5.306;2022-10-12T01:21:42;19.90;63.10
27188;DHT22;14708;50.872;5.306;2022-10-12T01:27:45;19.80;63.70
27188;DHT22;14708;50.872;5.306;2022-10-12T01:30:37;19.80;63.10
27188;DHT22;14708;50.872;5.306;2022-10-12T01:33:16;19.80;63.20
27188;DHT22;14708;50.872;5.306;2022-10-12T01:36:08;19.80;63.20
27188;DHT22;14708;50.872;5.306;2022-10-12T01:41:36;19.80;63.10
27188;DHT22;14708;50.872;5.306;2022-10-12T01:44:03;19.80;63.20
27188;DHT22;14708;50.872;5.306;2022-10-12T01:48:58;19.80;63.40
27188;DHT22;14708;50.872;5.306;2022-10-12T01:51:29;19.80;63.30
27188;DHT22;14708;50.872;5.306;2022-10-12T01:56:43;19.70;63.20
27188;DHT22;14708;50.872;5.306;2022-10-12T01:59:26;19.70;63.10
27188;DHT22;14708;50.872;5.306;2022-10-12T02:05:21;19.70;63.20
27188;DHT22;14708;50.872;5.306;2022-10-12T02:10:59;19.70;63.20
27188;DHT22;14708;50.872;5.306;2022-10-12T02:13:29;19.70;63.10
27188;DHT22;14708;50.872;5.306;2022-10-12T02:15:57;19.70;63.00
27188;DHT22;14708;50.872;5.306;2022-10-12T02:18:26;19.70;62.90
27188;DHT22;14708;50.872;5.306;2022-10-12T02:20:53;19.70;63.00
27188;DHT22;14708;50.872;5.306;2022-10-12T02:23:28;19.70;62.90
27188;DHT22;14708;50.872;5.306;2022-10-12T02:25:57;19.70;63.00
27188;DHT22;14708;50.872;5.306;2022-10-12T02:28:27;19.70;62.90
27188;DHT22;14708;50.872;5.306;2022-10-12T02:31:02;19.60;63.00
27188;DHT22;14708;50.872;5.306;2022-10-12T02:36:42;19.60;63.00
27188;DHT22;14708;50.872;5.306;2022-10-12T02:39:24;19.60;62.90
27188;DHT22;14708;50.872;5.306;2022-10-12T02:41:54;19.60;62.80
27188;DHT22;14708;50.872;5.306;2022-10-12T02:44:28;19.60;63.00
27188;DHT22;14708;50.872;5.306;2022-10-12T02:46:56;19.60;63.00
27188;DHT22;14708;50.872;5.306;2022-10-12T02:49:24;19.60;63.00
27188;DHT22;14708;50.872;5.306;2022-10-12T02:52:09;19.60;62.80
27188;DHT22;14708;50.872;5.306;2022-10-12T02:54:55;19.60;62.80
27188;DHT22;14708;50.872;5.306;2022-10-12T02:57:20;19.60;63.00
27188;DHT22;14708;50.872;5.306;2022-10-12T02:59:46;19.60;62.90
27188;DHT22;14708;50.872;5.306;2022-10-12T03:02:12;19.60;62.80
27188;DHT22;14708;50.872;5.306;2022-10-12T03:04:37;19.50;62.90
27188;DHT22;14708;50.872;5.306;2022-10-12T03:07:03;19.60;62.80
27188;DHT22;14708;50.872;5.306;2022-10-12T03:09:29;19.50;62.90
27188;DHT22;14708;50.872;5.306;2022-10-12T03:11:54;19.50;62.90
27188;DHT22;14708;50.872;5.306;2022-10-12T03:14:20;19.50;63.00
27188;DHT22;14708;50.872;5.306;2022-10-12T03:16:47;19.50;62.90
27188;DHT22;14708;50.872;5.306;2022-10-12T03:19:23;19.50;62.80
27188;DHT22;14708;50.872;5.306;2022-10-12T03:21:48;19.50;62.90
27188;DHT22;14708;50.872;5.306;2022-10-12T03:24:14;19.50;63.50
27188;DHT22;14708;50.872;5.306;2022-10-12T03:26:39;19.50;62.90
27188;DHT22;14708;50.872;5.306;2022-10-12T03:29:25;19.50;62.70
27188;DHT22;14708;50.872;5.306;2022-10-12T03:31:50;19.50;63.00
27188;DHT22;14708;50.872;5.306;2022-10-12T03:34:16;19.50;62.80
27188;DHT22;14708;50.872;5.306;2022-10-12T03:36:42;19.50;62.70
27188;DHT22;14708;50.872;5.306;2022-10-12T03:39:07;19.50;62.80
27188;DHT22;14708;50.872;5.306;2022-10-12T03:41:33;19.50;62.80
27188;DHT22;14708;50.872;5.306;2022-10-12T03:43:58;19.50;62.50
27188;DHT22;14708;50.872;5.306;2022-10-12T03:46:24;19.50;62.50
27188;DHT22;14708;50.872;5.306;2022-10-12T03:48:50;19.50;62.50
27188;DHT22;14708;50.872;5.306;2022-10-12T03:51:15;19.40;62.60
27188;DHT22;14708;50.872;5.306;2022-10-12T03:53:51;19.40;62.70
27188;DHT22;14708;50.872;5.306;2022-10-12T03:56:16;19.50;62.80
27188;DHT22;14708;50.872;5.306;2022-10-12T03:58:42;19.40;62.60
27188;DHT22;14708;50.872;5.306;2022-10-12T04:01:07;19.40;62.70
27188;DHT22;14708;50.872;5.306;2022-10-12T04:03:33;19.40;62.50
27188;DHT22;14708;50.872;5.306;2022-10-12T04:05:59;19.40;62.60
27188;DHT22;14708;50.872;5.306;2022-10-12T04:08:24;19.50;62.70
27188;DHT22;14708;50.872;5.306;2022-10-12T04:10:51;19.40;62.40
27188;DHT22;14708;50.872;5.306;2022-10-12T04:13:17;19.50;62.40
27188;DHT22;14708;50.872;5.306;2022-10-12T04:15:43;19.40;63.60
27188;DHT22;14708;50.872;5.306;2022-10-12T04:18:09;19.50;62.60
27188;DHT22;14708;50.872;5.306;2022-10-12T04:20:35;19.50;62.70
27188;DHT22;14708;50.872;5.306;2022-10-12T04:23:00;19.50;62.90
27188;DHT22;14708;50.872;5.306;2022-10-12T04:25:26;19.40;62.90
27188;DHT22;14708;50.872;5.306;2022-10-12T04:27:51;19.40;63.20
27188;DHT22;14708;50.872;5.306;2022-10-12T04:30:17;19.40;63.00
27188;DHT22;14708;50.872;5.306;2022-10-12T04:32:43;19.40;63.20
27188;DHT22;14708;50.872;5.306;2022-10-12T04:35:08;19.40;63.20
27188;DHT22;14708;50.872;5.306;2022-10-12T04:37:34;19.40;63.50
27188;DHT22;14708;50.872;5.306;2022-10-12T04:40:00;19.40;63.20
27188;DHT22;14708;50.872;5.306;2022-10-12T04:42:28;19.40;63.30
27188;DHT22;14708;50.872;5.306;2022-10-12T04:44:54;19.40;63.10
27188;DHT22;14708;50.872;5.306;2022-10-12T04:47:20;19.50;62.30
27188;DHT22;14708;50.872;5.306;2022-10-12T04:49:45;19.50;62.90
27188;DHT22;14708;50.872;5.306;2022-10-12T04:52:11;19.40;62.80
27188;DHT22;14708;50.872;5.306;2022-10-12T04:54:36;19.40;63.00
27188;DHT22;14708;50.872;5.306;2022-10-12T04:57:02;19.40;63.80
27188;DHT22;14708;50.872;5.306;2022-10-12T04:59:28;19.40;63.00
27188;DHT22;14708;50.872;5.306;2022-10-12T05:01:54;19.40;63.00
27188;DHT22;14708;50.872;5.306;2022-10-12T05:04:19;19.30;62.70
27188;DHT22;14708;50.872;5.306;2022-10-12T05:06:45;19.30;62.80
27188;DHT22;14708;50.872;5.306;2022-10-12T05:09:11;19.30;63.00
27188;DHT22;14708;50.872;5.306;2022-10-12T05:11:37;19.30;62.90
27188;DHT22;14708;50.872;5.306;2022-10-12T05:14:03;19.30;63.00
27188;DHT22;14708;50.872;5.306;2022-10-12T05:16:28;19.30;62.80
27188;DHT22;14708;50.872;5.306;2022-10-12T05:18:54;19.30;62.70
27188;DHT22;14708;50.872;5.306;2022-10-12T05:21:19;19.30;63.50
27188;DHT22;14708;50.872;5.306;2022-10-12T05:23:51;19.30;62.90
27188;DHT22;14708;50.872;5.306;2022-10-12T05:26:25;19.30;62.60
27188;DHT22;14708;50.872;5.306;2022-10-12T05:28:51;19.20;62.60
27188;DHT22;14708;50.872;5.306;2022-10-12T05:31:16;19.20;62.60
27188;DHT22;14708;50.872;5.306;2022-10-12T05:33:42;19.20;62.70
27188;DHT22;14708;50.872;5.306;2022-10-12T05:36:08;19.20;62.60
27188;DHT22;14708;50.872;5.306;2022-10-12T05:38:34;19.20;62.60
27188;DHT22;14708;50.872;5.306;2022-10-12T05:40:59;19.20;62.50
27188;DHT22;14708;50.872;5.306;2022-10-12T05:43:25;19.20;62.40
27188;DHT22;14708;50.872;5.306;2022-10-12T05:45:50;19.20;62.40
27188;DHT22;14708;50.872;5.306;2022-10-12T05:48:16;19.20;62.60
27188;DHT22;14708;50.872;5.306;2022-10-12T05:50:42;19.20;62.50
27188;DHT22;14708;50.872;5.306;2022-10-12T05:53:07;19.20;62.40
27188;DHT22;14708;50.872;5.306;2022-10-12T05:55:33;19.20;62.50
27188;DHT22;14708;50.872;5.306;2022-10-12T05:57:58;19.20;62.40
27188;DHT22;14708;50.872;5.306;2022-10-12T06:00:24;19.20;62.00
27188;DHT22;14708;50.872;5.306;2022-10-12T06:02:49;19.20;62.00
27188;DHT22;14708;50.872;5.306;2022-10-12T06:05:17;19.20;62.00
27188;DHT22;14708;50.872;5.306;2022-10-12T06:07:43;19.30;62.00
27188;DHT22;14708;50.872;5.306;2022-10-12T06:10:08;19.40;61.60
27188;DHT22;14708;50.872;5.306;2022-10-12T06:12:54;19.40;61.70
27188;DHT22;14708;50.872;5.306;2022-10-12T06:15:20;19.50;61.50
27188;DHT22;14708;50.872;5.306;2022-10-12T06:17:45;19.60;61.20
27188;DHT22;14708;50.872;5.306;2022-10-12T06:20:11;19.70;60.90
27188;DHT22;14708;50.872;5.306;2022-10-12T06:22:37;19.80;60.80
27188;DHT22;14708;50.872;5.306;2022-10-12T06:25:03;19.90;60.70
27188;DHT22;14708;50.872;5.306;2022-10-12T06:27:28;20.00;60.00
27188;DHT22;14708;50.872;5.306;2022-10-12T06:29:54;20.10;59.50
27188;DHT22;14708;50.872;5.306;2022-10-12T06:32:20;20.20;59.50
27188;DHT22;14708;50.872;5.306;2022-10-12T06:34:45;20.40;59.80
27188;DHT22;14708;50.872;5.306;2022-10-12T06:37:11;20.50;59.50
27188;DHT22;14708;50.872;5.306;2022-10-12T06:39:36;20.50;58.70
27188;DHT22;14708;50.872;5.306;2022-10-12T06:42:02;20.60;58.80
27188;DHT22;14708;50.872;5.306;2022-10-12T06:44:28;20.60;59.80
27188;DHT22;14708;50.872;5.306;2022-10-12T06:46:53;20.60;61.30
27188;DHT22;14708;50.872;5.306;2022-10-12T06:49:19;20.70;59.30
27188;DHT22;14708;50.872;5.306;2022-10-12T06:52:00;20.60;59.00
27188;DHT22;14708;50.872;5.306;2022-10-12T06:54:25;20.60;62.60
27188;DHT22;14708;50.872;5.306;2022-10-12T06:56:51;20.50;60.80
27188;DHT22;14708;50.872;5.306;2022-10-12T06:59:17;20.60;60.20
27188;DHT22;14708;50.872;5.306;2022-10-12T07:01:43;20.50;60.10
27188;DHT22;14708;50.872;5.306;2022-10-12T07:04:09;20.60;58.40
27188;DHT22;14708;50.872;5.306;2022-10-12T07:06:35;20.70;57.30
27188;DHT22;14708;50.872;5.306;2022-10-12T07:09:00;20.70;58.00
27188;DHT22;14708;50.872;5.306;2022-10-12T07:11:26;20.70;58.00
27188;DHT22;14708;50.872;5.306;2022-10-12T07:13:52;20.60;58.60
27188;DHT22;14708;50.872;5.306;2022-10-12T07:16:17;20.60;57.70
27188;DHT22;14708;50.872;5.306;2022-10-12T07:18:43;20.60;58.30
27188;DHT22;14708;50.872;5.306;2022-10-12T07:21:09;20.50;59.00
27188;DHT22;14708;50.872;5.306;2022-10-12T07:23:34;20.50;59.20
27188;DHT22;14708;50.872;5.306;2022-10-12T07:26:02;20.40;59.30
27188;DHT22;14708;50.872;5.306;2022-10-12T07:28:28;20.40;59.40
27188;DHT22;14708;50.872;5.306;2022-10-12T07:30:53;20.30;59.60
27188;DHT22;14708;50.872;5.306;2022-10-12T07:33:19;20.30;59.70
27188;DHT22;14708;50.872;5.306;2022-10-12T07:35:54;20.40;59.20
27188;DHT22;14708;50.872;5.306;2022-10-12T07:38:20;20.30;59.60
27188;DHT22;14708;50.872;5.306;2022-10-12T07:40:46;20.30;59.60
27188;DHT22;14708;50.872;5.306;2022-10-12T07:43:12;20.30;59.50
27188;DHT22;14708;50.872;5.306;2022-10-12T07:45:38;20.20;59.70
27188;DHT22;14708;50.872;5.306;2022-10-12T07:48:09;20.20;59.70
27188;DHT22;14708;50.872;5.306;2022-10-12T07:50:34;20.20;59.80
27188;DHT22;14708;50.872;5.306;2022-10-12T07:53:00;20.20;59.90
27188;DHT22;14708;50.872;5.306;2022-10-12T07:55:25;20.20;59.60
27188;DHT22;14708;50.872;5.306;2022-10-12T07:57:51;20.20;58.00
27188;DHT22;14708;50.872;5.306;2022-10-12T08:00:17;20.20;59.20
27188;DHT22;14708;50.872;5.306;2022-10-12T08:02:42;20.20;59.40
27188;DHT22;14708;50.872;5.306;2022-10-12T08:05:08;20.10;59.60
27188;DHT22;14708;50.872;5.306;2022-10-12T08:07:34;20.10;58.50
27188;DHT22;14708;50.872;5.306;2022-10-12T08:10:00;20.10;59.50
27188;DHT22;14708;50.872;5.306;2022-10-12T08:12:25;20.10;59.00
27188;DHT22;14708;50.872;5.306;2022-10-12T08:15:00;20.10;59.60
27188;DHT22;14708;50.872;5.306;2022-10-12T08:17:25;20.10;59.60
27188;DHT22;14708;50.872;5.306;2022-10-12T08:19:51;20.10;59.70
27188;DHT22;14708;50.872;5.306;2022-10-12T08:22:16;20.10;59.70
27188;DHT22;14708;50.872;5.306;2022-10-12T08:24:42;20.10;59.70
27188;DHT22;14708;50.872;5.306;2022-10-12T08:27:08;20.10;59.70
27188;DHT22;14708;50.872;5.306;2022-10-12T08:29:33;20.10;59.60
27188;DHT22;14708;50.872;5.306;2022-10-12T08:31:59;20.10;59.60
27188;DHT22;14708;50.872;5.306;2022-10-12T08:34:26;20.10;59.60
27188;DHT22;14708;50.872;5.306;2022-10-12T08:36:53;20.20;59.60
27188;DHT22;14708;50.872;5.306;2022-10-12T08:39:19;20.10;59.60
27188;DHT22;14708;50.872;5.306;2022-10-12T08:47:42;20.20;59.30
27188;DHT22;14708;50.872;5.306;2022-10-12T08:53:25;20.20;58.60
27188;DHT22;14708;50.872;5.306;2022-10-12T08:55:51;20.20;59.20
27188;DHT22;14708;50.872;5.306;2022-10-12T08:58:28;20.20;59.40
27188;DHT22;14708;50.872;5.306;2022-10-12T09:09:53;20.20;59.10
27188;DHT22;14708;50.872;5.306;2022-10-12T09:15:23;20.30;59.00
27188;DHT22;14708;50.872;5.306;2022-10-12T09:17:54;20.30;59.30
27188;DHT22;14708;50.872;5.306;2022-10-12T09:20:25;20.30;59.20
27188;DHT22;14708;50.872;5.306;2022-10-12T09:22:55;20.30;59.20
27188;DHT22;14708;50.872;5.306;2022-10-12T09:25:25;20.20;59.30
27188;DHT22;14708;50.872;5.306;2022-10-12T09:27:51;20.20;59.30
27188;DHT22;14708;50.872;5.306;2022-10-12T09:30:17;20.20;59.30
27188;DHT22;14708;50.872;5.306;2022-10-12T09:33:02;20.20;59.20
27188;DHT22;14708;50.872;5.306;2022-10-12T09:35:29;20.20;59.40
27188;DHT22;14708;50.872;5.306;2022-10-12T09:37:55;20.20;59.40
27188;DHT22;14708;50.872;5.306;2022-10-12T09:40:24;20.20;59.50
27188;DHT22;14708;50.872;5.306;2022-10-12T09:42:51;20.20;59.40
27188;DHT22;14708;50.872;5.306;2022-10-12T09:45:20;20.30;59.40
27188;DHT22;14708;50.872;5.306;2022-10-12T09:53:45;20.40;59.20
27188;DHT22;14708;50.872;5.306;2022-10-12T09:56:22;20.40;59.20
27188;DHT22;14708;50.872;5.306;2022-10-12T09:58:51;20.40;59.40
27188;DHT22;14708;50.872;5.306;2022-10-12T10:01:25;20.40;59.50
27188;DHT22;14708;50.872;5.306;2022-10-12T10:04:17;20.40;59.50
27188;DHT22;14708;50.872;5.306;2022-10-12T10:06:47;20.40;59.60
27188;DHT22;14708;50.872;5.306;2022-10-12T10:09:26;20.50;59.60
27188;DHT22;14708;50.872;5.306;2022-10-12T10:11:53;20.50;59.70
27188;DHT22;14708;50.872;5.306;2022-10-12T10:14:18;20.70;59.10
27188;DHT22;14708;50.872;5.306;2022-10-12T10:16:48;20.70;58.90
27188;DHT22;14708;50.872;5.306;2022-10-12T10:19:21;20.80;58.90
27188;DHT22;14708;50.872;5.306;2022-10-12T10:21:50;20.80;58.80
27188;DHT22;14708;50.872;5.306;2022-10-12T10:24:26;20.90;58.40
27188;DHT22;14708;50.872;5.306;2022-10-12T10:27:01;21.10;58.70
27188;DHT22;14708;50.872;5.306;2022-10-12T10:29:34;21.20;58.50
27188;DHT22;14708;50.872;5.306;2022-10-12T10:32:22;21.30;58.30
27188;DHT22;14708;50.872;5.306;2022-10-12T10:35:18;21.50;58.40
27188;DHT22;14708;50.872;5.306;2022-10-12T10:37:49;21.50;58.40
27188;DHT22;14708;50.872;5.306;2022-10-12T10:40:30;21.50;58.30
27188;DHT22;14708;50.872;5.306;2022-10-12T10:43:00;21.50;58.50
27188;DHT22;14708;50.872;5.306;2022-10-12T10:45:51;21.60;58.50
27188;DHT22;14708;50.872;5.306;2022-10-12T10:48:21;21.60;58.50
27188;DHT22;14708;50.872;5.306;2022-10-12T10:50:55;21.60;58.50
27188;DHT22;14708;50.872;5.306;2022-10-12T10:53:28;21.60;58.50
27188;DHT22;14708;50.872;5.306;2022-10-12T10:58:30;21.60;56.90
27188;DHT22;14708;50.872;5.306;2022-10-12T11:01:01;21.60;57.70
27188;DHT22;14708;50.872;5.306;2022-10-12T11:03:38;21.60;58.00
27188;DHT22;14708;50.872;5.306;2022-10-12T11:06:16;21.70;58.00
27188;DHT22;14708;50.872;5.306;2022-10-12T11:08:45;21.60;58.10
27188;DHT22;14708;50.872;5.306;2022-10-12T11:11:18;21.60;58.10
27188;DHT22;14708;50.872;5.306;2022-10-12T11:13:57;21.50;58.40
27188;DHT22;14708;50.872;5.306;2022-10-12T11:16:44;21.50;58.40
27188;DHT22;14708;50.872;5.306;2022-10-12T11:21:47;21.50;57.60
27188;DHT22;14708;50.872;5.306;2022-10-12T11:24:27;21.50;56.60
27188;DHT22;14708;50.872;5.306;2022-10-12T11:27:14;21.50;55.50
27188;DHT22;14708;50.872;5.306;2022-10-12T11:29:41;21.50;55.80
27188;DHT22;14708;50.872;5.306;2022-10-12T11:37:54;21.50;57.10
27188;DHT22;14708;50.872;5.306;2022-10-12T11:43:19;21.60;57.20
27188;DHT22;14708;50.872;5.306;2022-10-12T11:45:48;21.60;57.60
27188;DHT22;14708;50.872;5.306;2022-10-12T11:51:15;21.50;56.70
27188;DHT22;14708;50.872;5.306;2022-10-12T11:53:55;21.40;57.80
27188;DHT22;14708;50.872;5.306;2022-10-12T11:56:46;21.30;58.20
27188;DHT22;14708;50.872;5.306;2022-10-12T12:02:08;21.10;58.70
27188;DHT22;14708;50.872;5.306;2022-10-12T12:04:36;21.10;59.00
27188;DHT22;14708;50.872;5.306;2022-10-12T12:15:40;21.20;58.70
27188;DHT22;14708;50.872;5.306;2022-10-12T12:18:10;21.20;58.70
27188;DHT22;14708;50.872;5.306;2022-10-12T12:28:47;21.20;58.80
27188;DHT22;14708;50.872;5.306;2022-10-12T12:31:23;21.20;58.50
27188;DHT22;14708;50.872;5.306;2022-10-12T12:34:28;21.20;58.50
27188;DHT22;14708;50.872;5.306;2022-10-12T12:37:09;21.20;58.30
27188;DHT22;14708;50.872;5.306;2022-10-12T12:39:36;21.20;58.30
27188;DHT22;14708;50.872;5.306;2022-10-12T12:42:05;21.20;58.20
27188;DHT22;14708;50.872;5.306;2022-10-12T12:44:43;21.20;58.20
27188;DHT22;14708;50.872;5.306;2022-10-12T12:49:50;21.20;58.80
27188;DHT22;14708;50.872;5.306;2022-10-12T12:52:39;21.20;58.30
27188;DHT22;14708;50.872;5.306;2022-10-12T12:55:36;21.10;58.60
27188;DHT22;14708;50.872;5.306;2022-10-12T13:01:29;21.10;58.40
27188;DHT22;14708;50.872;5.306;2022-10-12T13:04:34;21.20;58.60
27188;DHT22;14708;50.872;5.306;2022-10-12T13:07:30;21.20;58.50
27188;DHT22;14708;50.872;5.306;2022-10-12T13:12:54;21.20;58.60
27188;DHT22;14708;50.872;5.306;2022-10-12T13:18:39;21.10;58.60
27188;DHT22;14708;50.872;5.306;2022-10-12T13:26:36;21.30;56.60
27188;DHT22;14708;50.872;5.306;2022-10-12T13:29:07;21.40;56.30
27188;DHT22;14708;50.872;5.306;2022-10-12T13:31:40;21.30;56.10
27188;DHT22;14708;50.872;5.306;2022-10-12T13:34:44;21.30;55.90
27188;DHT22;14708;50.872;5.306;2022-10-12T13:37:13;21.40;55.90
27188;DHT22;14708;50.872;5.306;2022-10-12T13:39:41;21.40;55.60
27188;DHT22;14708;50.872;5.306;2022-10-12T13:42:22;21.50;55.00
27188;DHT22;14708;50.872;5.306;2022-10-12T13:44:53;21.60;54.70
27188;DHT22;14708;50.872;5.306;2022-10-12T13:47:29;21.50;55.40
27188;DHT22;14708;50.872;5.306;2022-10-12T13:49:55;21.40;54.20
27188;DHT22;14708;50.872;5.306;2022-10-12T13:52:30;21.30;54.20
27188;DHT22;14708;50.872;5.306;2022-10-12T13:54:56;21.30;54.60
27188;DHT22;14708;50.872;5.306;2022-10-12T13:57:42;21.30;54.90
27188;DHT22;14708;50.872;5.306;2022-10-12T14:00:19;21.40;55.80
27188;DHT22;14708;50.872;5.306;2022-10-12T14:03:05;21.30;56.10
27188;DHT22;14708;50.872;5.306;2022-10-12T14:05:32;21.50;54.70
27188;DHT22;14708;50.872;5.306;2022-10-12T14:08:20;21.60;54.60
27188;DHT22;14708;50.872;5.306;2022-10-12T14:10:47;21.60;53.90
27188;DHT22;14708;50.872;5.306;2022-10-12T14:13:24;21.70;54.30
27188;DHT22;14708;50.872;5.306;2022-10-12T14:15:50;21.60;54.60
27188;DHT22;14708;50.872;5.306;2022-10-12T14:18:30;21.60;55.20
27188;DHT22;14708;50.872;5.306;2022-10-12T14:21:19;21.50;55.40
27188;DHT22;14708;50.872;5.306;2022-10-12T14:23:55;21.50;55.60
27188;DHT22;14708;50.872;5.306;2022-10-12T14:26:40;21.40;55.80
27188;DHT22;14708;50.872;5.306;2022-10-12T14:32:03;21.30;56.40
27188;DHT22;14708;50.872;5.306;2022-10-12T14:34:41;21.30;56.50
27188;DHT22;14708;50.872;5.306;2022-10-12T14:39:34;21.30;56.60
27188;DHT22;14708;50.872;5.306;2022-10-12T14:42:02;21.30;56.80
27188;DHT22;14708;50.872;5.306;2022-10-12T14:44:40;21.30;56.60
27188;DHT22;14708;50.872;5.306;2022-10-12T14:47:20;21.30;56.80
27188;DHT22;14708;50.872;5.306;2022-10-12T14:49:47;21.30;56.90
27188;DHT22;14708;50.872;5.306;2022-10-12T14:52:26;21.40;56.60
27188;DHT22;14708;50.872;5.306;2022-10-12T14:54:55;21.60;56.40
27188;DHT22;14708;50.872;5.306;2022-10-12T14:57:22;21.70;56.20
27188;DHT22;14708;50.872;5.306;2022-10-12T14:59:48;21.80;56.10
27188;DHT22;14708;50.872;5.306;2022-10-12T15:02:25;21.90;56.20
27188;DHT22;14708;50.872;5.306;2022-10-12T15:04:52;22.00;55.80
27188;DHT22;14708;50.872;5.306;2022-10-12T15:07:21;22.10;55.70
27188;DHT22;14708;50.872;5.306;2022-10-12T15:09:47;22.20;55.40
27188;DHT22;14708;50.872;5.306;2022-10-12T15:12:15;22.30;55.40
27188;DHT22;14708;50.872;5.306;2022-10-12T15:14:42;22.40;55.80
27188;DHT22;14708;50.872;5.306;2022-10-12T15:17:12;22.50;55.70
27188;DHT22;14708;50.872;5.306;2022-10-12T15:19:41;22.60;55.90
27188;DHT22;14708;50.872;5.306;2022-10-12T15:22:09;22.50;54.70
27188;DHT22;14708;50.872;5.306;2022-10-12T15:24:38;22.40;54.10
27188;DHT22;14708;50.872;5.306;2022-10-12T15:27:04;22.50;55.20
27188;DHT22;14708;50.872;5.306;2022-10-12T15:29:29;22.50;55.40
27188;DHT22;14708;50.872;5.306;2022-10-12T15:31:55;22.50;55.40
27188;DHT22;14708;50.872;5.306;2022-10-12T15:34:22;22.40;55.50
27188;DHT22;14708;50.872;5.306;2022-10-12T15:36:48;22.40;55.50
27188;DHT22;14708;50.872;5.306;2022-10-12T15:39:14;22.40;56.00
27188;DHT22;14708;50.872;5.306;2022-10-12T15:41:39;22.40;56.10
27188;DHT22;14708;50.872;5.306;2022-10-12T15:44:05;22.30;56.50
27188;DHT22;14708;50.872;5.306;2022-10-12T15:46:31;22.30;56.20
27188;DHT22;14708;50.872;5.306;2022-10-12T15:48:56;22.20;56.00
27188;DHT22;14708;50.872;5.306;2022-10-12T15:51:23;22.20;56.10
27188;DHT22;14708;50.872;5.306;2022-10-12T15:53:50;22.20;56.70
27188;DHT22;14708;50.872;5.306;2022-10-12T15:56:17;22.20;57.00
27188;DHT22;14708;50.872;5.306;2022-10-12T15:58:43;22.20;57.80
27188;DHT22;14708;50.872;5.306;2022-10-12T16:01:14;22.10;57.90
27188;DHT22;14708;50.872;5.306;2022-10-12T16:03:48;22.20;58.00
27188;DHT22;14708;50.872;5.306;2022-10-12T16:06:14;22.20;58.80
27188;DHT22;14708;50.872;5.306;2022-10-12T16:08:40;22.20;58.60
27188;DHT22;14708;50.872;5.306;2022-10-12T16:11:09;22.20;58.90
27188;DHT22;14708;50.872;5.306;2022-10-12T16:13:35;22.20;59.00
27188;DHT22;14708;50.872;5.306;2022-10-12T16:16:01;22.20;58.90
27188;DHT22;14708;50.872;5.306;2022-10-12T16:18:26;22.10;58.80
27188;DHT22;14708;50.872;5.306;2022-10-12T16:20:52;22.20;58.70
27188;DHT22;14708;50.872;5.306;2022-10-12T16:23:24;22.20;58.00
27188;DHT22;14708;50.872;5.306;2022-10-12T16:25:50;22.10;58.80
27188;DHT22;14708;50.872;5.306;2022-10-12T16:28:16;22.10;58.50
27188;DHT22;14708;50.872;5.306;2022-10-12T16:30:42;22.30;58.70
27188;DHT22;14708;50.872;5.306;2022-10-12T16:33:08;22.40;59.00
27188;DHT22;14708;50.872;5.306;2022-10-12T16:35:33;22.30;58.70
27188;DHT22;14708;50.872;5.306;2022-10-12T16:38:16;22.40;59.00
27188;DHT22;14708;50.872;5.306;2022-10-12T16:40:44;22.40;58.80
27188;DHT22;14708;50.872;5.306;2022-10-12T16:43:10;22.30;59.10
27188;DHT22;14708;50.872;5.306;2022-10-12T16:45:36;22.30;59.10
27188;DHT22;14708;50.872;5.306;2022-10-12T16:48:02;22.30;59.20
27188;DHT22;14708;50.872;5.306;2022-10-12T16:50:28;22.30;59.20
27188;DHT22;14708;50.872;5.306;2022-10-12T16:52:54;22.30;59.30
27188;DHT22;14708;50.872;5.306;2022-10-12T16:55:20;22.40;58.40
27188;DHT22;14708;50.872;5.306;2022-10-12T16:57:45;22.50;59.00
27188;DHT22;14708;50.872;5.306;2022-10-12T17:00:13;22.40;59.20
27188;DHT22;14708;50.872;5.306;2022-10-12T17:02:39;22.40;59.20
27188;DHT22;14708;50.872;5.306;2022-10-12T17:05:05;22.30;59.70
27188;DHT22;14708;50.872;5.306;2022-10-12T17:07:31;22.20;60.00
27188;DHT22;14708;50.872;5.306;2022-10-12T17:09:57;22.30;60.10
27188;DHT22;14708;50.872;5.306;2022-10-12T17:12:24;22.30;60.90
27188;DHT22;14708;50.872;5.306;2022-10-12T17:14:57;22.30;59.60
27188;DHT22;14708;50.872;5.306;2022-10-12T17:17:22;22.50;59.80
27188;DHT22;14708;50.872;5.306;2022-10-12T17:19:48;22.60;58.90
27188;DHT22;14708;50.872;5.306;2022-10-12T17:22:13;22.60;58.70
27188;DHT22;14708;50.872;5.306;2022-10-12T17:24:41;22.50;57.80
27188;DHT22;14708;50.872;5.306;2022-10-12T17:27:08;22.50;58.60
27188;DHT22;14708;50.872;5.306;2022-10-12T17:29:35;22.50;58.70
27188;DHT22;14708;50.872;5.306;2022-10-12T17:32:01;22.60;58.50
27188;DHT22;14708;50.872;5.306;2022-10-12T17:34:31;22.50;57.70
27188;DHT22;14708;50.872;5.306;2022-10-12T17:36:58;22.40;58.30